Terminal Aerodrome Forecast
Issued by NWS Cleveland, OH

Home | Current Version | Previous Version | Graphics & Text | Print | Product List | Glossary On
Versions: 1 2 3 4 5 6 7 8 9 10 11 12 13 14 15 16 17 18 19 20 21 22 23
000
FTUS41 KCLE 161734
TAFTOL
TAF
KTOL 161734Z 1618/1718 09005KT 5SM BR OVC025
      TEMPO 1621/1624 2SM -RA BKN012
     FM170000 10005KT 2SM -RA BR OVC008
     FM170500 12005KT 1SM -RA BR OVC004
     FM171400 20010KT 2SM BR OVC004=

USA.gov is the U.S. government's official web portal to all federal, state and local government web resources and services.